sensor_id;sensor_type;location;lat;lon;timestamp;P1;durP1;ratioP1;P2;durP2;ratioP2
41079;SDS011;26826;50.718;7.114;2022-07-29T00:03:52;1.62;;;0.50;;
41079;SDS011;26826;50.718;7.114;2022-07-29T00:13:52;1.05;;;0.50;;
41079;SDS011;26826;50.718;7.114;2022-07-29T00:23:53;1.15;;;0.57;;
41079;SDS011;26826;50.718;7.114;2022-07-29T00:33:53;1.37;;;0.60;;
41079;SDS011;26826;50.718;7.114;2022-07-29T00:43:54;1.10;;;0.47;;
41079;SDS011;26826;50.718;7.114;2022-07-29T00:53:55;1.00;;;0.50;;
41079;SDS011;26826;50.718;7.114;2022-07-29T01:03:56;1.52;;;0.40;;
41079;SDS011;26826;50.718;7.114;2022-07-29T01:13:56;0.93;;;0.45;;
41079;SDS011;26826;50.718;7.114;2022-07-29T01:35:08;1.00;;;0.50;;
41079;SDS011;26826;50.718;7.114;2022-07-29T01:44:53;0.80;;;0.40;;
41079;SDS011;26826;50.718;7.114;2022-07-29T01:54:58;0.50;;;0.40;;
41079;SDS011;26826;50.718;7.114;2022-07-29T02:05:04;1.00;;;0.50;;
41079;SDS011;26826;50.718;7.114;2022-07-29T02:15:08;1.08;;;0.55;;
41079;SDS011;26826;50.718;7.114;2022-07-29T02:25:10;0.90;;;0.47;;
41079;SDS011;26826;50.718;7.114;2022-07-29T02:35:12;1.60;;;0.70;;
41079;SDS011;26826;50.718;7.114;2022-07-29T02:45:14;0.88;;;0.47;;
41079;SDS011;26826;50.718;7.114;2022-07-29T03:05:28;0.62;;;0.35;;
41079;SDS011;26826;50.718;7.114;2022-07-29T03:15:30;0.80;;;0.40;;
41079;SDS011;26826;50.718;7.114;2022-07-29T03:25:32;1.05;;;0.50;;
41079;SDS011;26826;50.718;7.114;2022-07-29T03:35:32;0.67;;;0.40;;
41079;SDS011;26826;50.718;7.114;2022-07-29T03:45:33;1.20;;;0.55;;
41079;SDS011;26826;50.718;7.114;2022-07-29T03:55:40;1.23;;;0.70;;
41079;SDS011;26826;50.718;7.114;2022-07-29T04:05:43;0.85;;;0.50;;
41079;SDS011;26826;50.718;7.114;2022-07-29T04:15:43;1.23;;;0.40;;
41079;SDS011;26826;50.718;7.114;2022-07-29T04:25:44;1.02;;;0.43;;
41079;SDS011;26826;50.718;7.114;2022-07-29T04:35:44;1.00;;;0.60;;
41079;SDS011;26826;50.718;7.114;2022-07-29T04:45:45;1.00;;;0.50;;
41079;SDS011;26826;50.718;7.114;2022-07-29T04:55:45;1.77;;;0.50;;
41079;SDS011;26826;50.718;7.114;2022-07-29T05:05:46;1.07;;;0.57;;
41079;SDS011;26826;50.718;7.114;2022-07-29T05:15:47;0.68;;;0.45;;
41079;SDS011;26826;50.718;7.114;2022-07-29T05:25:47;1.00;;;0.43;;
41079;SDS011;26826;50.718;7.114;2022-07-29T05:35:48;1.10;;;0.50;;
41079;SDS011;26826;50.718;7.114;2022-07-29T05:45:48;1.35;;;0.55;;
41079;SDS011;26826;50.718;7.114;2022-07-29T05:55:49;0.85;;;0.45;;
41079;SDS011;26826;50.718;7.114;2022-07-29T06:05:50;1.10;;;0.50;;
41079;SDS011;26826;50.718;7.114;2022-07-29T06:15:50;1.37;;;0.77;;
41079;SDS011;26826;50.718;7.114;2022-07-29T06:25:51;0.90;;;0.60;;
41079;SDS011;26826;50.718;7.114;2022-07-29T06:35:52;1.33;;;0.68;;
41079;SDS011;26826;50.718;7.114;2022-07-29T06:45:52;1.12;;;0.57;;
41079;SDS011;26826;50.718;7.114;2022-07-29T06:55:53;1.10;;;0.43;;
41079;SDS011;26826;50.718;7.114;2022-07-29T07:05:53;1.62;;;0.60;;
41079;SDS011;26826;50.718;7.114;2022-07-29T07:15:54;1.37;;;0.70;;
41079;SDS011;26826;50.718;7.114;2022-07-29T07:25:55;2.92;;;0.65;;
41079;SDS011;26826;50.718;7.114;2022-07-29T07:35:55;0.98;;;0.52;;
41079;SDS011;26826;50.718;7.114;2022-07-29T07:45:56;0.98;;;0.40;;
41079;SDS011;26826;50.718;7.114;2022-07-29T07:55:57;1.30;;;0.80;;
41079;SDS011;26826;50.718;7.114;2022-07-29T08:05:57;0.88;;;0.52;;
41079;SDS011;26826;50.718;7.114;2022-07-29T08:15:58;0.80;;;0.50;;
41079;SDS011;26826;50.718;7.114;2022-07-29T08:26:11;1.30;;;0.80;;
41079;SDS011;26826;50.718;7.114;2022-07-29T08:36:13;1.08;;;0.65;;
41079;SDS011;26826;50.718;7.114;2022-07-29T08:46:13;1.30;;;0.65;;
41079;SDS011;26826;50.718;7.114;2022-07-29T08:56:14;1.50;;;0.82;;
41079;SDS011;26826;50.718;7.114;2022-07-29T09:06:17;0.88;;;0.50;;
41079;SDS011;26826;50.718;7.114;2022-07-29T09:16:20;1.40;;;0.80;;
41079;SDS011;26826;50.718;7.114;2022-07-29T09:26:21;1.00;;;0.60;;
41079;SDS011;26826;50.718;7.114;2022-07-29T09:36:29;0.88;;;0.60;;
41079;SDS011;26826;50.718;7.114;2022-07-29T09:46:29;1.10;;;0.50;;
41079;SDS011;26826;50.718;7.114;2022-07-29T09:56:39;0.90;;;0.60;;
41079;SDS011;26826;50.718;7.114;2022-07-29T10:07:00;0.98;;;0.65;;
41079;SDS011;26826;50.718;7.114;2022-07-29T10:17:02;1.10;;;0.70;;
41079;SDS011;26826;50.718;7.114;2022-07-29T10:27:06;1.45;;;0.70;;
41079;SDS011;26826;50.718;7.114;2022-07-29T10:37:27;1.17;;;0.62;;
41079;SDS011;26826;50.718;7.114;2022-07-29T10:47:41;2.10;;;0.75;;
41079;SDS011;26826;50.718;7.114;2022-07-29T10:57:42;0.93;;;0.60;;
41079;SDS011;26826;50.718;7.114;2022-07-29T11:18:13;1.50;;;0.80;;
41079;SDS011;26826;50.718;7.114;2022-07-29T11:28:16;1.85;;;0.75;;
41079;SDS011;26826;50.718;7.114;2022-07-29T11:38:24;1.30;;;0.70;;
41079;SDS011;26826;50.718;7.114;2022-07-29T11:48:27;1.48;;;0.90;;
41079;SDS011;26826;50.718;7.114;2022-07-29T12:08:28;1.27;;;0.97;;
41079;SDS011;26826;50.718;7.114;2022-07-29T12:18:30;1.52;;;0.68;;
41079;SDS011;26826;50.718;7.114;2022-07-29T12:28:30;1.48;;;0.90;;
41079;SDS011;26826;50.718;7.114;2022-07-29T12:38:40;1.08;;;0.80;;
41079;SDS011;26826;50.718;7.114;2022-07-29T12:48:42;1.58;;;0.75;;
41079;SDS011;26826;50.718;7.114;2022-07-29T12:58:43;0.93;;;0.60;;
41079;SDS011;26826;50.718;7.114;2022-07-29T13:08:58;1.33;;;0.80;;
41079;SDS011;26826;50.718;7.114;2022-07-29T13:19:17;1.80;;;0.82;;
41079;SDS011;26826;50.718;7.114;2022-07-29T13:29:18;1.40;;;0.90;;
41079;SDS011;26826;50.718;7.114;2022-07-29T13:39:18;0.98;;;0.70;;
41079;SDS011;26826;50.718;7.114;2022-07-29T13:49:19;1.10;;;0.70;;
41079;SDS011;26826;50.718;7.114;2022-07-29T13:59:19;1.20;;;0.70;;
41079;SDS011;26826;50.718;7.114;2022-07-29T14:09:20;1.10;;;0.80;;
41079;SDS011;26826;50.718;7.114;2022-07-29T14:19:20;1.57;;;0.90;;
41079;SDS011;26826;50.718;7.114;2022-07-29T14:29:21;1.10;;;0.60;;
41079;SDS011;26826;50.718;7.114;2022-07-29T14:39:22;1.60;;;1.03;;
41079;SDS011;26826;50.718;7.114;2022-07-29T14:49:23;1.33;;;0.70;;
41079;SDS011;26826;50.718;7.114;2022-07-29T14:59:23;1.20;;;0.70;;
41079;SDS011;26826;50.718;7.114;2022-07-29T15:09:24;2.30;;;1.13;;
41079;SDS011;26826;50.718;7.114;2022-07-29T15:19:25;1.52;;;0.90;;
41079;SDS011;26826;50.718;7.114;2022-07-29T15:29:25;1.30;;;0.90;;
41079;SDS011;26826;50.718;7.114;2022-07-29T15:39:26;2.55;;;1.10;;
41079;SDS011;26826;50.718;7.114;2022-07-29T15:49:27;2.05;;;0.88;;
41079;SDS011;26826;50.718;7.114;2022-07-29T15:59:31;1.75;;;0.82;;
41079;SDS011;26826;50.718;7.114;2022-07-29T16:09:32;1.20;;;0.80;;
41079;SDS011;26826;50.718;7.114;2022-07-29T16:19:33;1.25;;;0.75;;
41079;SDS011;26826;50.718;7.114;2022-07-29T16:29:33;1.20;;;0.80;;
41079;SDS011;26826;50.718;7.114;2022-07-29T16:39:35;1.10;;;0.80;;
41079;SDS011;26826;50.718;7.114;2022-07-29T16:49:36;2.60;;;0.80;;
41079;SDS011;26826;50.718;7.114;2022-07-29T16:59:37;1.00;;;0.60;;
41079;SDS011;26826;50.718;7.114;2022-07-29T17:09:38;1.83;;;0.70;;
41079;SDS011;26826;50.718;7.114;2022-07-29T17:19:38;1.15;;;0.80;;
41079;SDS011;26826;50.718;7.114;2022-07-29T17:29:39;1.30;;;0.65;;
41079;SDS011;26826;50.718;7.114;2022-07-29T17:39:40;0.93;;;0.60;;
41079;SDS011;26826;50.718;7.114;2022-07-29T17:49:41;1.30;;;0.60;;
41079;SDS011;26826;50.718;7.114;2022-07-29T17:59:41;0.85;;;0.52;;
41079;SDS011;26826;50.718;7.114;2022-07-29T18:09:42;1.15;;;0.65;;
41079;SDS011;26826;50.718;7.114;2022-07-29T18:19:42;2.00;;;0.70;;
41079;SDS011;26826;50.718;7.114;2022-07-29T18:29:43;1.37;;;0.70;;
41079;SDS011;26826;50.718;7.114;2022-07-29T18:39:44;1.50;;;0.85;;
41079;SDS011;26826;50.718;7.114;2022-07-29T18:49:44;1.70;;;0.60;;
41079;SDS011;26826;50.718;7.114;2022-07-29T18:59:45;1.83;;;0.75;;
41079;SDS011;26826;50.718;7.114;2022-07-29T19:09:45;1.58;;;0.80;;
41079;SDS011;26826;50.718;7.114;2022-07-29T19:19:46;1.58;;;0.80;;
41079;SDS011;26826;50.718;7.114;2022-07-29T19:29:47;1.50;;;0.90;;
41079;SDS011;26826;50.718;7.114;2022-07-29T19:39:47;1.65;;;1.02;;
41079;SDS011;26826;50.718;7.114;2022-07-29T19:49:48;1.02;;;0.60;;
41079;SDS011;26826;50.718;7.114;2022-07-29T19:59:48;1.70;;;0.90;;
41079;SDS011;26826;50.718;7.114;2022-07-29T20:09:49;2.92;;;0.80;;
41079;SDS011;26826;50.718;7.114;2022-07-29T20:19:53;2.30;;;0.95;;
41079;SDS011;26826;50.718;7.114;2022-07-29T20:29:55;1.45;;;0.80;;
41079;SDS011;26826;50.718;7.114;2022-07-29T20:39:56;1.40;;;0.80;;
41079;SDS011;26826;50.718;7.114;2022-07-29T20:49:56;2.78;;;1.37;;
41079;SDS011;26826;50.718;7.114;2022-07-29T20:59:58;2.35;;;1.33;;
41079;SDS011;26826;50.718;7.114;2022-07-29T21:09:58;1.30;;;0.80;;
41079;SDS011;26826;50.718;7.114;2022-07-29T21:19:59;3.47;;;0.80;;
41079;SDS011;26826;50.718;7.114;2022-07-29T21:30:05;1.90;;;0.90;;
41079;SDS011;26826;50.718;7.114;2022-07-29T21:40:07;1.75;;;0.80;;
41079;SDS011;26826;50.718;7.114;2022-07-29T21:50:08;1.00;;;0.62;;
41079;SDS011;26826;50.718;7.114;2022-07-29T22:00:09;1.67;;;0.90;;
41079;SDS011;26826;50.718;7.114;2022-07-29T22:10:14;1.85;;;1.08;;
41079;SDS011;26826;50.718;7.114;2022-07-29T22:20:15;1.30;;;0.80;;
41079;SDS011;26826;50.718;7.114;2022-07-29T22:30:16;1.57;;;0.90;;
41079;SDS011;26826;50.718;7.114;2022-07-29T22:40:16;1.40;;;0.90;;
41079;SDS011;26826;50.718;7.114;2022-07-29T22:50:17;1.40;;;0.75;;
41079;SDS011;26826;50.718;7.114;2022-07-29T23:00:17;1.87;;;1.00;;
41079;SDS011;26826;50.718;7.114;2022-07-29T23:10:18;1.17;;;0.90;;
41079;SDS011;26826;50.718;7.114;2022-07-29T23:20:19;1.45;;;0.90;;
41079;SDS011;26826;50.718;7.114;2022-07-29T23:30:20;1.67;;;0.80;;
41079;SDS011;26826;50.718;7.114;2022-07-29T23:40:20;2.03;;;1.10;;
41079;SDS011;26826;50.718;7.114;2022-07-29T23:50:21;1.60;;;1.02;;
